sensor_id;sensor_type;location;lat;lon;timestamp;temperature;humidity
24260;DHT22;12384;48.112;18.418;2023-03-01T00:01:32;3.80;47.30
24260;DHT22;12384;48.112;18.418;2023-03-01T00:04:03;3.80;47.40
24260;DHT22;12384;48.112;18.418;2023-03-01T00:06:31;3.80;47.20
24260;DHT22;12384;48.112;18.418;2023-03-01T00:09:00;3.80;47.30
24260;DHT22;12384;48.112;18.418;2023-03-01T00:11:29;3.80;47.30
24260;DHT22;12384;48.112;18.418;2023-03-01T00:14:01;3.80;47.30
24260;DHT22;12384;48.112;18.418;2023-03-01T00:16:33;3.80;47.30
24260;DHT22;12384;48.112;18.418;2023-03-01T00:19:03;3.80;47.30
24260;DHT22;12384;48.112;18.418;2023-03-01T00:21:31;3.80;47.30
24260;DHT22;12384;48.112;18.418;2023-03-01T00:24:01;3.80;47.30
24260;DHT22;12384;48.112;18.418;2023-03-01T00:26:29;3.80;47.40
24260;DHT22;12384;48.112;18.418;2023-03-01T00:28:59;3.80;47.30
24260;DHT22;12384;48.112;18.418;2023-03-01T00:31:30;3.70;47.40
24260;DHT22;12384;48.112;18.418;2023-03-01T00:34:00;3.70;47.30
24260;DHT22;12384;48.112;18.418;2023-03-01T00:36:34;3.80;47.40
24260;DHT22;12384;48.112;18.418;2023-03-01T00:39:04;3.70;47.40
24260;DHT22;12384;48.112;18.418;2023-03-01T00:41:33;3.70;47.40
24260;DHT22;12384;48.112;18.418;2023-03-01T00:44:02;3.70;47.40
24260;DHT22;12384;48.112;18.418;2023-03-01T00:46:31;3.70;47.30
24260;DHT22;12384;48.112;18.418;2023-03-01T00:49:01;3.70;47.40
24260;DHT22;12384;48.112;18.418;2023-03-01T00:51:33;3.60;47.40
24260;DHT22;12384;48.112;18.418;2023-03-01T00:54:02;3.60;47.50
24260;DHT22;12384;48.112;18.418;2023-03-01T00:56:31;3.60;47.70
24260;DHT22;12384;48.112;18.418;2023-03-01T00:59:00;3.60;47.70
24260;DHT22;12384;48.112;18.418;2023-03-01T01:01:30;3.50;47.70
24260;DHT22;12384;48.112;18.418;2023-03-01T01:04:01;3.50;47.80
24260;DHT22;12384;48.112;18.418;2023-03-01T01:06:33;3.60;48.00
24260;DHT22;12384;48.112;18.418;2023-03-01T01:09:03;3.60;48.00
24260;DHT22;12384;48.112;18.418;2023-03-01T01:11:33;3.60;48.00
24260;DHT22;12384;48.112;18.418;2023-03-01T01:14:03;3.60;48.00
24260;DHT22;12384;48.112;18.418;2023-03-01T01:16:31;3.60;48.20
24260;DHT22;12384;48.112;18.418;2023-03-01T01:19:01;3.60;49.20
24260;DHT22;12384;48.112;18.418;2023-03-01T01:21:29;3.60;48.40
24260;DHT22;12384;48.112;18.418;2023-03-01T01:23:59;3.60;48.20
24260;DHT22;12384;48.112;18.418;2023-03-01T01:26:30;3.70;48.30
24260;DHT22;12384;48.112;18.418;2023-03-01T01:29:01;3.70;48.20
24260;DHT22;12384;48.112;18.418;2023-03-01T01:31:31;3.70;48.30
24260;DHT22;12384;48.112;18.418;2023-03-01T01:34:01;3.70;48.30
24260;DHT22;12384;48.112;18.418;2023-03-01T01:36:30;3.70;48.20
24260;DHT22;12384;48.112;18.418;2023-03-01T01:39:00;3.70;48.20
24260;DHT22;12384;48.112;18.418;2023-03-01T01:41:29;3.70;48.20
24260;DHT22;12384;48.112;18.418;2023-03-01T01:44:13;3.70;48.20
24260;DHT22;12384;48.112;18.418;2023-03-01T01:46:46;3.80;48.20
24260;DHT22;12384;48.112;18.418;2023-03-01T01:49:29;3.80;48.20
24260;DHT22;12384;48.112;18.418;2023-03-01T01:52:08;3.80;48.20
24260;DHT22;12384;48.112;18.418;2023-03-01T01:54:44;3.80;48.20
24260;DHT22;12384;48.112;18.418;2023-03-01T01:57:16;3.80;48.20
24260;DHT22;12384;48.112;18.418;2023-03-01T01:59:50;3.80;48.30
24260;DHT22;12384;48.112;18.418;2023-03-01T02:02:19;3.80;48.40
24260;DHT22;12384;48.112;18.418;2023-03-01T02:04:49;3.80;48.40
24260;DHT22;12384;48.112;18.418;2023-03-01T02:07:22;3.80;48.50
24260;DHT22;12384;48.112;18.418;2023-03-01T02:09:53;3.80;48.40
24260;DHT22;12384;48.112;18.418;2023-03-01T02:12:23;3.80;48.70
24260;DHT22;12384;48.112;18.418;2023-03-01T02:14:52;3.80;48.50
24260;DHT22;12384;48.112;18.418;2023-03-01T02:17:21;3.80;48.50
24260;DHT22;12384;48.112;18.418;2023-03-01T02:19:58;3.80;48.70
24260;DHT22;12384;48.112;18.418;2023-03-01T02:22:35;3.80;48.70
24260;DHT22;12384;48.112;18.418;2023-03-01T02:25:20;3.80;49.20
24260;DHT22;12384;48.112;18.418;2023-03-01T02:27:53;3.80;48.60
24260;DHT22;12384;48.112;18.418;2023-03-01T02:30:27;3.80;48.70
24260;DHT22;12384;48.112;18.418;2023-03-01T02:32:57;3.80;48.80
24260;DHT22;12384;48.112;18.418;2023-03-01T02:35:32;3.80;48.90
24260;DHT22;12384;48.112;18.418;2023-03-01T02:38:03;3.80;48.90
24260;DHT22;12384;48.112;18.418;2023-03-01T02:40:34;3.80;49.00
24260;DHT22;12384;48.112;18.418;2023-03-01T02:43:07;3.80;49.00
24260;DHT22;12384;48.112;18.418;2023-03-01T02:45:47;3.80;49.00
24260;DHT22;12384;48.112;18.418;2023-03-01T02:48:16;3.80;49.00
24260;DHT22;12384;48.112;18.418;2023-03-01T02:50:53;3.80;49.00
24260;DHT22;12384;48.112;18.418;2023-03-01T02:53:35;3.80;49.00
24260;DHT22;12384;48.112;18.418;2023-03-01T02:56:08;3.80;49.00
24260;DHT22;12384;48.112;18.418;2023-03-01T02:58:41;3.80;49.00
24260;DHT22;12384;48.112;18.418;2023-03-01T03:01:15;3.80;49.00
24260;DHT22;12384;48.112;18.418;2023-03-01T03:03:43;3.80;49.00
24260;DHT22;12384;48.112;18.418;2023-03-01T03:06:13;3.70;49.00
24260;DHT22;12384;48.112;18.418;2023-03-01T03:08:42;3.70;49.10
24260;DHT22;12384;48.112;18.418;2023-03-01T03:11:11;3.70;49.10
24260;DHT22;12384;48.112;18.418;2023-03-01T03:13:39;3.70;49.20
24260;DHT22;12384;48.112;18.418;2023-03-01T03:16:18;3.70;49.20
24260;DHT22;12384;48.112;18.418;2023-03-01T03:18:47;3.70;49.30
24260;DHT22;12384;48.112;18.418;2023-03-01T03:21:15;3.70;49.30
24260;DHT22;12384;48.112;18.418;2023-03-01T03:23:44;3.80;49.40
24260;DHT22;12384;48.112;18.418;2023-03-01T03:26:12;3.80;49.40
24260;DHT22;12384;48.112;18.418;2023-03-01T03:28:42;3.80;49.40
24260;DHT22;12384;48.112;18.418;2023-03-01T03:31:10;3.80;49.40
24260;DHT22;12384;48.112;18.418;2023-03-01T03:33:40;3.70;49.40
24260;DHT22;12384;48.112;18.418;2023-03-01T03:36:09;3.70;49.40
24260;DHT22;12384;48.112;18.418;2023-03-01T03:38:40;3.70;49.30
24260;DHT22;12384;48.112;18.418;2023-03-01T03:41:08;3.70;49.40
24260;DHT22;12384;48.112;18.418;2023-03-01T03:43:38;3.70;49.30
24260;DHT22;12384;48.112;18.418;2023-03-01T03:46:08;3.70;49.40
24260;DHT22;12384;48.112;18.418;2023-03-01T03:48:39;3.70;49.40
24260;DHT22;12384;48.112;18.418;2023-03-01T03:51:10;3.70;49.40
24260;DHT22;12384;48.112;18.418;2023-03-01T03:53:39;3.70;49.40
24260;DHT22;12384;48.112;18.418;2023-03-01T03:56:08;3.70;49.50
24260;DHT22;12384;48.112;18.418;2023-03-01T03:58:37;3.70;49.60
24260;DHT22;12384;48.112;18.418;2023-03-01T04:01:06;3.70;49.60
24260;DHT22;12384;48.112;18.418;2023-03-01T04:03:35;3.60;49.60
24260;DHT22;12384;48.112;18.418;2023-03-01T04:06:05;3.60;49.50
24260;DHT22;12384;48.112;18.418;2023-03-01T04:08:33;3.60;49.60
24260;DHT22;12384;48.112;18.418;2023-03-01T04:11:03;3.60;49.70
24260;DHT22;12384;48.112;18.418;2023-03-01T04:13:46;3.60;49.80
24260;DHT22;12384;48.112;18.418;2023-03-01T04:16:14;3.50;49.80
24260;DHT22;12384;48.112;18.418;2023-03-01T04:18:43;3.50;49.80
24260;DHT22;12384;48.112;18.418;2023-03-01T04:21:13;3.50;50.00
24260;DHT22;12384;48.112;18.418;2023-03-01T04:23:42;3.50;50.10
24260;DHT22;12384;48.112;18.418;2023-03-01T04:26:11;3.50;50.20
24260;DHT22;12384;48.112;18.418;2023-03-01T04:28:41;3.40;50.20
24260;DHT22;12384;48.112;18.418;2023-03-01T04:31:13;3.40;50.30
24260;DHT22;12384;48.112;18.418;2023-03-01T04:33:46;3.40;50.40
24260;DHT22;12384;48.112;18.418;2023-03-01T04:36:16;3.40;50.50
24260;DHT22;12384;48.112;18.418;2023-03-01T04:38:45;3.40;50.50
24260;DHT22;12384;48.112;18.418;2023-03-01T04:41:17;3.30;50.50
24260;DHT22;12384;48.112;18.418;2023-03-01T04:43:46;3.30;50.60
24260;DHT22;12384;48.112;18.418;2023-03-01T04:46:17;3.30;50.70
24260;DHT22;12384;48.112;18.418;2023-03-01T04:48:47;3.30;50.70
24260;DHT22;12384;48.112;18.418;2023-03-01T04:51:17;3.20;51.20
24260;DHT22;12384;48.112;18.418;2023-03-01T04:53:45;3.20;50.60
24260;DHT22;12384;48.112;18.418;2023-03-01T04:56:15;3.20;50.60
24260;DHT22;12384;48.112;18.418;2023-03-01T04:58:45;3.10;50.50
24260;DHT22;12384;48.112;18.418;2023-03-01T05:01:16;3.10;50.60
24260;DHT22;12384;48.112;18.418;2023-03-01T05:03:46;3.10;50.60
24260;DHT22;12384;48.112;18.418;2023-03-01T05:06:18;3.00;50.60
24260;DHT22;12384;48.112;18.418;2023-03-01T05:08:46;3.00;50.70
24260;DHT22;12384;48.112;18.418;2023-03-01T05:11:15;3.00;50.80
24260;DHT22;12384;48.112;18.418;2023-03-01T05:13:43;3.00;50.80
24260;DHT22;12384;48.112;18.418;2023-03-01T05:16:11;3.00;50.90
24260;DHT22;12384;48.112;18.418;2023-03-01T05:18:40;3.00;51.00
24260;DHT22;12384;48.112;18.418;2023-03-01T05:21:11;3.00;51.00
24260;DHT22;12384;48.112;18.418;2023-03-01T05:23:41;3.00;51.00
24260;DHT22;12384;48.112;18.418;2023-03-01T05:26:10;3.00;51.10
24260;DHT22;12384;48.112;18.418;2023-03-01T05:28:54;3.00;51.10
24260;DHT22;12384;48.112;18.418;2023-03-01T05:31:27;3.00;51.20
24260;DHT22;12384;48.112;18.418;2023-03-01T05:33:55;3.00;51.20
24260;DHT22;12384;48.112;18.418;2023-03-01T05:36:23;3.00;51.80
24260;DHT22;12384;48.112;18.418;2023-03-01T05:38:53;3.00;51.30
24260;DHT22;12384;48.112;18.418;2023-03-01T05:41:23;3.10;51.40
24260;DHT22;12384;48.112;18.418;2023-03-01T05:43:51;3.10;51.40
24260;DHT22;12384;48.112;18.418;2023-03-01T05:46:19;3.10;51.40
24260;DHT22;12384;48.112;18.418;2023-03-01T05:48:49;3.10;51.40
24260;DHT22;12384;48.112;18.418;2023-03-01T05:51:17;3.20;51.60
24260;DHT22;12384;48.112;18.418;2023-03-01T05:53:46;3.30;51.60
24260;DHT22;12384;48.112;18.418;2023-03-01T05:56:15;3.30;51.60
24260;DHT22;12384;48.112;18.418;2023-03-01T05:58:44;3.40;51.60
24260;DHT22;12384;48.112;18.418;2023-03-01T06:01:12;3.50;51.70
24260;DHT22;12384;48.112;18.418;2023-03-01T06:03:41;3.50;51.70
24260;DHT22;12384;48.112;18.418;2023-03-01T06:06:09;3.60;51.70
24260;DHT22;12384;48.112;18.418;2023-03-01T06:08:38;3.70;51.80
24260;DHT22;12384;48.112;18.418;2023-03-01T06:11:06;3.80;51.80
24260;DHT22;12384;48.112;18.418;2023-03-01T06:13:36;3.90;51.80
24260;DHT22;12384;48.112;18.418;2023-03-01T06:16:05;3.90;51.70
24260;DHT22;12384;48.112;18.418;2023-03-01T06:18:34;4.10;51.80
24260;DHT22;12384;48.112;18.418;2023-03-01T06:21:03;4.20;51.80
24260;DHT22;12384;48.112;18.418;2023-03-01T06:23:32;4.20;51.80
24260;DHT22;12384;48.112;18.418;2023-03-01T06:26:04;4.30;51.70
24260;DHT22;12384;48.112;18.418;2023-03-01T06:28:33;4.40;51.70
24260;DHT22;12384;48.112;18.418;2023-03-01T06:31:02;4.50;51.80
24260;DHT22;12384;48.112;18.418;2023-03-01T06:33:31;4.60;51.70
24260;DHT22;12384;48.112;18.418;2023-03-01T06:35:59;4.70;51.70
24260;DHT22;12384;48.112;18.418;2023-03-01T06:38:27;4.70;51.60
24260;DHT22;12384;48.112;18.418;2023-03-01T06:40:56;4.80;51.60
24260;DHT22;12384;48.112;18.418;2023-03-01T06:43:24;4.90;51.60
24260;DHT22;12384;48.112;18.418;2023-03-01T06:45:53;5.00;51.40
24260;DHT22;12384;48.112;18.418;2023-03-01T06:48:23;5.00;51.30
24260;DHT22;12384;48.112;18.418;2023-03-01T06:50:51;5.10;51.00
24260;DHT22;12384;48.112;18.418;2023-03-01T06:53:19;5.20;50.90
24260;DHT22;12384;48.112;18.418;2023-03-01T06:55:54;5.30;50.70
24260;DHT22;12384;48.112;18.418;2023-03-01T06:58:23;5.30;50.70
24260;DHT22;12384;48.112;18.418;2023-03-01T07:00:51;5.40;50.70
24260;DHT22;12384;48.112;18.418;2023-03-01T07:03:20;5.40;50.50
24260;DHT22;12384;48.112;18.418;2023-03-01T07:05:50;5.50;50.30
24260;DHT22;12384;48.112;18.418;2023-03-01T07:08:19;5.50;50.20
24260;DHT22;12384;48.112;18.418;2023-03-01T07:10:48;5.50;50.10
24260;DHT22;12384;48.112;18.418;2023-03-01T07:13:18;5.60;50.00
24260;DHT22;12384;48.112;18.418;2023-03-01T07:15:47;5.60;50.00
24260;DHT22;12384;48.112;18.418;2023-03-01T07:18:15;5.70;50.00
24260;DHT22;12384;48.112;18.418;2023-03-01T07:20:44;5.80;49.90
24260;DHT22;12384;48.112;18.418;2023-03-01T07:23:14;5.90;50.00
24260;DHT22;12384;48.112;18.418;2023-03-01T07:25:43;6.00;50.00
24260;DHT22;12384;48.112;18.418;2023-03-01T07:28:11;6.10;49.80
24260;DHT22;12384;48.112;18.418;2023-03-01T07:30:40;6.20;49.60
24260;DHT22;12384;48.112;18.418;2023-03-01T07:33:08;6.20;49.40
24260;DHT22;12384;48.112;18.418;2023-03-01T07:35:37;6.30;49.40
24260;DHT22;12384;48.112;18.418;2023-03-01T07:38:05;6.40;49.40
24260;DHT22;12384;48.112;18.418;2023-03-01T07:40:35;6.50;49.10
24260;DHT22;12384;48.112;18.418;2023-03-01T07:43:04;6.60;48.80
24260;DHT22;12384;48.112;18.418;2023-03-01T07:45:32;6.60;48.50
24260;DHT22;12384;48.112;18.418;2023-03-01T07:48:01;6.60;48.10
24260;DHT22;12384;48.112;18.418;2023-03-01T07:50:29;6.70;48.10
24260;DHT22;12384;48.112;18.418;2023-03-01T07:52:58;6.70;48.10
24260;DHT22;12384;48.112;18.418;2023-03-01T07:55:26;6.70;47.90
24260;DHT22;12384;48.112;18.418;2023-03-01T07:57:56;6.80;47.70
24260;DHT22;12384;48.112;18.418;2023-03-01T08:00:24;6.90;47.70
24260;DHT22;12384;48.112;18.418;2023-03-01T08:02:53;6.90;47.60
24260;DHT22;12384;48.112;18.418;2023-03-01T08:05:21;6.90;47.20
24260;DHT22;12384;48.112;18.418;2023-03-01T08:07:50;6.90;47.00
24260;DHT22;12384;48.112;18.418;2023-03-01T08:10:18;7.00;46.80
24260;DHT22;12384;48.112;18.418;2023-03-01T08:12:47;7.00;46.80
24260;DHT22;12384;48.112;18.418;2023-03-01T08:15:16;7.10;47.00
24260;DHT22;12384;48.112;18.418;2023-03-01T08:17:48;7.10;46.80
24260;DHT22;12384;48.112;18.418;2023-03-01T08:20:17;7.20;46.70
24260;DHT22;12384;48.112;18.418;2023-03-01T08:22:46;7.30;46.70
24260;DHT22;12384;48.112;18.418;2023-03-01T08:25:14;7.30;46.60
24260;DHT22;12384;48.112;18.418;2023-03-01T08:27:42;7.50;46.70
24260;DHT22;12384;48.112;18.418;2023-03-01T08:30:12;7.60;46.90
24260;DHT22;12384;48.112;18.418;2023-03-01T08:32:42;7.80;47.00
24260;DHT22;12384;48.112;18.418;2023-03-01T08:35:10;7.90;46.90
24260;DHT22;12384;48.112;18.418;2023-03-01T08:37:38;8.10;46.90
24260;DHT22;12384;48.112;18.418;2023-03-01T08:40:08;8.20;46.50
24260;DHT22;12384;48.112;18.418;2023-03-01T08:42:37;8.40;46.40
24260;DHT22;12384;48.112;18.418;2023-03-01T08:45:06;8.50;45.90
24260;DHT22;12384;48.112;18.418;2023-03-01T08:47:35;8.60;45.60
24260;DHT22;12384;48.112;18.418;2023-03-01T08:50:05;8.60;45.20
24260;DHT22;12384;48.112;18.418;2023-03-01T08:52:34;8.70;45.40
24260;DHT22;12384;48.112;18.418;2023-03-01T08:55:02;8.80;45.40
24260;DHT22;12384;48.112;18.418;2023-03-01T08:57:31;8.90;45.60
24260;DHT22;12384;48.112;18.418;2023-03-01T08:59:59;9.10;45.80
24260;DHT22;12384;48.112;18.418;2023-03-01T09:02:28;9.20;45.60
24260;DHT22;12384;48.112;18.418;2023-03-01T09:04:56;9.30;45.30
24260;DHT22;12384;48.112;18.418;2023-03-01T09:07:27;9.40;45.00
24260;DHT22;12384;48.112;18.418;2023-03-01T09:09:56;9.50;44.70
24260;DHT22;12384;48.112;18.418;2023-03-01T09:12:24;9.60;44.80
24260;DHT22;12384;48.112;18.418;2023-03-01T09:14:53;9.70;44.20
24260;DHT22;12384;48.112;18.418;2023-03-01T09:17:21;9.80;44.40
24260;DHT22;12384;48.112;18.418;2023-03-01T09:19:49;9.80;44.40
24260;DHT22;12384;48.112;18.418;2023-03-01T09:22:18;9.90;44.20
24260;DHT22;12384;48.112;18.418;2023-03-01T09:24:48;10.00;42.90
24260;DHT22;12384;48.112;18.418;2023-03-01T09:27:16;10.00;42.50
24260;DHT22;12384;48.112;18.418;2023-03-01T09:29:46;10.10;42.50
24260;DHT22;12384;48.112;18.418;2023-03-01T09:32:14;10.10;42.20
24260;DHT22;12384;48.112;18.418;2023-03-01T09:34:42;10.20;42.10
24260;DHT22;12384;48.112;18.418;2023-03-01T09:37:33;10.30;42.00
24260;DHT22;12384;48.112;18.418;2023-03-01T09:40:03;10.40;42.20
24260;DHT22;12384;48.112;18.418;2023-03-01T09:42:34;10.50;42.40
24260;DHT22;12384;48.112;18.418;2023-03-01T09:45:05;10.70;42.40
24260;DHT22;12384;48.112;18.418;2023-03-01T09:47:36;10.90;42.10
24260;DHT22;12384;48.112;18.418;2023-03-01T09:50:09;11.10;41.40
24260;DHT22;12384;48.112;18.418;2023-03-01T09:52:42;11.30;41.30
24260;DHT22;12384;48.112;18.418;2023-03-01T09:55:15;11.50;41.20
24260;DHT22;12384;48.112;18.418;2023-03-01T09:57:52;11.80;41.30
24260;DHT22;12384;48.112;18.418;2023-03-01T10:00:33;12.10;40.80
24260;DHT22;12384;48.112;18.418;2023-03-01T10:03:14;12.30;40.20
24260;DHT22;12384;48.112;18.418;2023-03-01T10:05:52;12.60;40.10
24260;DHT22;12384;48.112;18.418;2023-03-01T10:08:34;12.80;39.30
24260;DHT22;12384;48.112;18.418;2023-03-01T10:11:18;13.00;39.40
24260;DHT22;12384;48.112;18.418;2023-03-01T10:13:56;13.20;39.20
24260;DHT22;12384;48.112;18.418;2023-03-01T10:16:33;13.30;38.10
24260;DHT22;12384;48.112;18.418;2023-03-01T10:19:04;13.30;37.70
24260;DHT22;12384;48.112;18.418;2023-03-01T10:21:38;13.30;37.80
24260;DHT22;12384;48.112;18.418;2023-03-01T10:24:12;13.30;37.70
24260;DHT22;12384;48.112;18.418;2023-03-01T10:26:50;13.20;37.40
24260;DHT22;12384;48.112;18.418;2023-03-01T10:29:25;13.20;37.20
24260;DHT22;12384;48.112;18.418;2023-03-01T10:31:55;13.20;36.80
24260;DHT22;12384;48.112;18.418;2023-03-01T10:34:33;13.10;36.60
24260;DHT22;12384;48.112;18.418;2023-03-01T10:37:09;13.10;36.70
24260;DHT22;12384;48.112;18.418;2023-03-01T10:39:54;13.20;36.70
24260;DHT22;12384;48.112;18.418;2023-03-01T10:42:29;13.30;37.30
24260;DHT22;12384;48.112;18.418;2023-03-01T10:45:02;13.50;38.00
24260;DHT22;12384;48.112;18.418;2023-03-01T10:47:42;14.00;38.30
24260;DHT22;12384;48.112;18.418;2023-03-01T10:50:19;14.60;38.10
24260;DHT22;12384;48.112;18.418;2023-03-01T10:52:57;15.30;37.60
24260;DHT22;12384;48.112;18.418;2023-03-01T10:55:31;16.00;37.00
24260;DHT22;12384;48.112;18.418;2023-03-01T10:58:19;16.60;35.70
24260;DHT22;12384;48.112;18.418;2023-03-01T11:00:52;17.30;34.40
24260;DHT22;12384;48.112;18.418;2023-03-01T11:03:23;17.60;33.90
24260;DHT22;12384;48.112;18.418;2023-03-01T11:06:04;18.10;33.70
24260;DHT22;12384;48.112;18.418;2023-03-01T11:08:39;18.60;32.60
24260;DHT22;12384;48.112;18.418;2023-03-01T11:11:22;19.10;32.40
24260;DHT22;12384;48.112;18.418;2023-03-01T11:13:56;19.60;32.20
24260;DHT22;12384;48.112;18.418;2023-03-01T11:16:28;20.00;31.20
24260;DHT22;12384;48.112;18.418;2023-03-01T11:19:14;20.30;30.00
24260;DHT22;12384;48.112;18.418;2023-03-01T11:21:53;20.50;29.30
24260;DHT22;12384;48.112;18.418;2023-03-01T11:24:28;20.60;29.20
24260;DHT22;12384;48.112;18.418;2023-03-01T11:27:01;20.80;28.70
24260;DHT22;12384;48.112;18.418;2023-03-01T11:29:36;20.80;28.30
24260;DHT22;12384;48.112;18.418;2023-03-01T11:32:15;20.90;28.50
24260;DHT22;12384;48.112;18.418;2023-03-01T11:34:49;21.00;28.20
24260;DHT22;12384;48.112;18.418;2023-03-01T11:37:29;21.10;28.10
24260;DHT22;12384;48.112;18.418;2023-03-01T11:40:05;21.10;27.70
24260;DHT22;12384;48.112;18.418;2023-03-01T11:42:56;21.10;27.30
24260;DHT22;12384;48.112;18.418;2023-03-01T11:45:36;21.10;27.70
24260;DHT22;12384;48.112;18.418;2023-03-01T11:48:24;21.20;27.90
24260;DHT22;12384;48.112;18.418;2023-03-01T11:51:21;21.40;27.80
24260;DHT22;12384;48.112;18.418;2023-03-01T11:54:05;21.40;27.20
24260;DHT22;12384;48.112;18.418;2023-03-01T11:56:37;21.30;27.10
24260;DHT22;12384;48.112;18.418;2023-03-01T12:02:39;21.30;26.70
24260;DHT22;12384;48.112;18.418;2023-03-01T12:05:24;21.50;27.70
24260;DHT22;12384;48.112;18.418;2023-03-01T12:07:59;21.60;27.60
24260;DHT22;12384;48.112;18.418;2023-03-01T12:10:35;21.80;27.40
24260;DHT22;12384;48.112;18.418;2023-03-01T12:13:27;22.00;27.30
24260;DHT22;12384;48.112;18.418;2023-03-01T12:16:25;22.10;27.00
24260;DHT22;12384;48.112;18.418;2023-03-01T12:19:28;22.30;27.50
24260;DHT22;12384;48.112;18.418;2023-03-01T12:22:17;22.50;27.20
24260;DHT22;12384;48.112;18.418;2023-03-01T12:25:20;22.80;27.50
24260;DHT22;12384;48.112;18.418;2023-03-01T12:28:04;23.10;26.70
24260;DHT22;12384;48.112;18.418;2023-03-01T12:30:46;23.30;27.10
24260;DHT22;12384;48.112;18.418;2023-03-01T12:33:24;23.60;27.20
24260;DHT22;12384;48.112;18.418;2023-03-01T12:36:22;23.80;26.90
24260;DHT22;12384;48.112;18.418;2023-03-01T12:38:59;24.10;26.00
24260;DHT22;12384;48.112;18.418;2023-03-01T12:41:57;24.40;26.60
24260;DHT22;12384;48.112;18.418;2023-03-01T12:47:30;25.00;26.30
24260;DHT22;12384;48.112;18.418;2023-03-01T12:50:05;25.30;26.10
24260;DHT22;12384;48.112;18.418;2023-03-01T12:52:43;25.70;26.10
24260;DHT22;12384;48.112;18.418;2023-03-01T12:55:25;25.90;25.80
24260;DHT22;12384;48.112;18.418;2023-03-01T12:58:06;26.30;25.60
24260;DHT22;12384;48.112;18.418;2023-03-01T13:00:41;26.50;25.40
24260;DHT22;12384;48.112;18.418;2023-03-01T13:03:19;26.80;24.90
24260;DHT22;12384;48.112;18.418;2023-03-01T13:06:01;27.00;24.90
24260;DHT22;12384;48.112;18.418;2023-03-01T13:08:38;27.20;24.40
24260;DHT22;12384;48.112;18.418;2023-03-01T13:11:16;27.30;24.00
24260;DHT22;12384;48.112;18.418;2023-03-01T13:13:45;27.20;23.30
24260;DHT22;12384;48.112;18.418;2023-03-01T13:16:22;26.90;23.20
24260;DHT22;12384;48.112;18.418;2023-03-01T13:19:11;26.80;23.80
24260;DHT22;12384;48.112;18.418;2023-03-01T13:21:40;26.90;24.00
24260;DHT22;12384;48.112;18.418;2023-03-01T13:24:39;27.00;24.00
24260;DHT22;12384;48.112;18.418;2023-03-01T13:27:25;27.20;23.40
24260;DHT22;12384;48.112;18.418;2023-03-01T13:29:57;27.40;23.20
24260;DHT22;12384;48.112;18.418;2023-03-01T13:32:31;27.60;23.60
24260;DHT22;12384;48.112;18.418;2023-03-01T13:35:42;27.90;23.40
24260;DHT22;12384;48.112;18.418;2023-03-01T13:38:37;28.00;22.80
24260;DHT22;12384;48.112;18.418;2023-03-01T13:41:07;28.10;22.90
24260;DHT22;12384;48.112;18.418;2023-03-01T13:43:37;28.20;23.20
24260;DHT22;12384;48.112;18.418;2023-03-01T13:46:10;28.30;23.00
24260;DHT22;12384;48.112;18.418;2023-03-01T13:48:43;28.30;22.20
24260;DHT22;12384;48.112;18.418;2023-03-01T13:51:12;28.30;22.50
24260;DHT22;12384;48.112;18.418;2023-03-01T13:53:45;28.20;22.20
24260;DHT22;12384;48.112;18.418;2023-03-01T13:56:19;28.20;22.60
24260;DHT22;12384;48.112;18.418;2023-03-01T13:58:51;28.10;22.30
24260;DHT22;12384;48.112;18.418;2023-03-01T14:01:26;27.90;22.40
24260;DHT22;12384;48.112;18.418;2023-03-01T14:03:57;27.80;22.50
24260;DHT22;12384;48.112;18.418;2023-03-01T14:06:27;27.70;22.10
24260;DHT22;12384;48.112;18.418;2023-03-01T14:09:04;27.60;22.20
24260;DHT22;12384;48.112;18.418;2023-03-01T14:11:58;27.40;22.20
24260;DHT22;12384;48.112;18.418;2023-03-01T14:14:39;27.30;22.40
24260;DHT22;12384;48.112;18.418;2023-03-01T14:20:11;27.10;23.00
24260;DHT22;12384;48.112;18.418;2023-03-01T14:22:41;27.10;22.80
24260;DHT22;12384;48.112;18.418;2023-03-01T14:25:20;26.90;22.50
24260;DHT22;12384;48.112;18.418;2023-03-01T14:27:58;26.80;22.60
24260;DHT22;12384;48.112;18.418;2023-03-01T14:30:33;26.60;22.80
24260;DHT22;12384;48.112;18.418;2023-03-01T14:33:03;26.50;23.20
24260;DHT22;12384;48.112;18.418;2023-03-01T14:35:35;26.40;23.10
24260;DHT22;12384;48.112;18.418;2023-03-01T14:38:04;26.30;23.10
24260;DHT22;12384;48.112;18.418;2023-03-01T14:40:34;26.30;23.30
24260;DHT22;12384;48.112;18.418;2023-03-01T14:43:11;26.20;23.20
24260;DHT22;12384;48.112;18.418;2023-03-01T14:45:47;26.20;23.60
24260;DHT22;12384;48.112;18.418;2023-03-01T14:48:16;26.10;23.10
24260;DHT22;12384;48.112;18.418;2023-03-01T14:50:46;26.00;23.20
24260;DHT22;12384;48.112;18.418;2023-03-01T14:53:17;26.00;23.10
24260;DHT22;12384;48.112;18.418;2023-03-01T14:55:50;25.90;22.90
24260;DHT22;12384;48.112;18.418;2023-03-01T14:58:23;25.80;23.10
24260;DHT22;12384;48.112;18.418;2023-03-01T15:00:54;25.80;23.20
24260;DHT22;12384;48.112;18.418;2023-03-01T15:03:31;25.70;23.10
24260;DHT22;12384;48.112;18.418;2023-03-01T15:06:02;25.60;23.00
24260;DHT22;12384;48.112;18.418;2023-03-01T15:08:32;25.40;23.00
24260;DHT22;12384;48.112;18.418;2023-03-01T15:11:03;25.20;23.10
24260;DHT22;12384;48.112;18.418;2023-03-01T15:13:36;25.00;23.30
24260;DHT22;12384;48.112;18.418;2023-03-01T15:16:07;24.80;23.40
24260;DHT22;12384;48.112;18.418;2023-03-01T15:18:37;24.50;23.40
24260;DHT22;12384;48.112;18.418;2023-03-01T15:21:17;24.20;23.50
24260;DHT22;12384;48.112;18.418;2023-03-01T15:23:49;23.90;23.60
24260;DHT22;12384;48.112;18.418;2023-03-01T15:26:25;23.60;23.80
24260;DHT22;12384;48.112;18.418;2023-03-01T15:28:59;23.20;23.90
24260;DHT22;12384;48.112;18.418;2023-03-01T15:31:30;22.70;24.10
24260;DHT22;12384;48.112;18.418;2023-03-01T15:34:19;22.30;24.20
24260;DHT22;12384;48.112;18.418;2023-03-01T15:36:50;21.80;24.20
24260;DHT22;12384;48.112;18.418;2023-03-01T15:39:40;21.10;24.20
24260;DHT22;12384;48.112;18.418;2023-03-01T15:42:13;20.30;24.40
24260;DHT22;12384;48.112;18.418;2023-03-01T15:45:21;19.50;24.40
24260;DHT22;12384;48.112;18.418;2023-03-01T15:47:52;18.60;24.90
24260;DHT22;12384;48.112;18.418;2023-03-01T15:50:22;17.70;25.00
24260;DHT22;12384;48.112;18.418;2023-03-01T15:52:51;17.00;25.40
24260;DHT22;12384;48.112;18.418;2023-03-01T15:55:21;16.30;25.80
24260;DHT22;12384;48.112;18.418;2023-03-01T15:57:50;15.70;26.10
24260;DHT22;12384;48.112;18.418;2023-03-01T16:00:29;15.10;26.50
24260;DHT22;12384;48.112;18.418;2023-03-01T16:02:57;14.50;26.80
24260;DHT22;12384;48.112;18.418;2023-03-01T16:05:27;14.00;27.50
24260;DHT22;12384;48.112;18.418;2023-03-01T16:07:57;13.60;27.50
24260;DHT22;12384;48.112;18.418;2023-03-01T16:10:26;13.20;27.80